sensor_id;sensor_type;location;lat;lon;timestamp;P1;durP1;ratioP1;P2;durP2;ratioP2
22650;SDS011;11492;42.646;23.400;2023-07-13T00:01:27;8.15;;;4.40;;
22650;SDS011;11492;42.646;23.400;2023-07-13T00:03:53;6.65;;;4.00;;
22650;SDS011;11492;42.646;23.400;2023-07-13T00:06:19;9.88;;;4.38;;
22650;SDS011;11492;42.646;23.400;2023-07-13T00:08:45;6.85;;;4.13;;
22650;SDS011;11492;42.646;23.400;2023-07-13T00:11:12;10.68;;;4.30;;
22650;SDS011;11492;42.646;23.400;2023-07-13T00:13:39;10.30;;;4.60;;
22650;SDS011;11492;42.646;23.400;2023-07-13T00:16:06;9.00;;;3.97;;
22650;SDS011;11492;42.646;23.400;2023-07-13T00:18:32;7.70;;;4.07;;
22650;SDS011;11492;42.646;23.400;2023-07-13T00:20:58;11.23;;;4.38;;
22650;SDS011;11492;42.646;23.400;2023-07-13T00:23:34;7.25;;;4.20;;
22650;SDS011;11492;42.646;23.400;2023-07-13T00:26:01;11.50;;;4.47;;
22650;SDS011;11492;42.646;23.400;2023-07-13T00:28:28;11.07;;;4.35;;
22650;SDS011;11492;42.646;23.400;2023-07-13T00:30:53;9.90;;;4.50;;
22650;SDS011;11492;42.646;23.400;2023-07-13T00:33:19;7.43;;;4.03;;
22650;SDS011;11492;42.646;23.400;2023-07-13T00:35:45;8.00;;;4.05;;
22650;SDS011;11492;42.646;23.400;2023-07-13T00:38:10;6.63;;;4.10;;
22650;SDS011;11492;42.646;23.400;2023-07-13T00:40:36;9.05;;;4.50;;
22650;SDS011;11492;42.646;23.400;2023-07-13T00:43:01;10.15;;;4.82;;
22650;SDS011;11492;42.646;23.400;2023-07-13T00:47:54;9.77;;;4.63;;
22650;SDS011;11492;42.646;23.400;2023-07-13T00:50:21;11.27;;;5.00;;
22650;SDS011;11492;42.646;23.400;2023-07-13T00:52:48;12.57;;;5.00;;
22650;SDS011;11492;42.646;23.400;2023-07-13T00:55:17;15.45;;;5.50;;
22650;SDS011;11492;42.646;23.400;2023-07-13T00:57:43;14.27;;;5.18;;
22650;SDS011;11492;42.646;23.400;2023-07-13T01:00:09;10.65;;;5.38;;
22650;SDS011;11492;42.646;23.400;2023-07-13T01:02:41;14.95;;;5.60;;
22650;SDS011;11492;42.646;23.400;2023-07-13T01:05:10;7.10;;;4.63;;
22650;SDS011;11492;42.646;23.400;2023-07-13T01:07:40;12.68;;;5.00;;
22650;SDS011;11492;42.646;23.400;2023-07-13T01:10:07;7.93;;;4.53;;
22650;SDS011;11492;42.646;23.400;2023-07-13T01:12:33;7.82;;;4.65;;
22650;SDS011;11492;42.646;23.400;2023-07-13T01:15:00;9.20;;;4.47;;
22650;SDS011;11492;42.646;23.400;2023-07-13T01:17:27;6.72;;;4.40;;
22650;SDS011;11492;42.646;23.400;2023-07-13T01:19:53;10.15;;;4.55;;
22650;SDS011;11492;42.646;23.400;2023-07-13T01:22:20;7.03;;;4.05;;
22650;SDS011;11492;42.646;23.400;2023-07-13T01:24:52;10.10;;;4.68;;
22650;SDS011;11492;42.646;23.400;2023-07-13T01:27:22;10.32;;;4.55;;
22650;SDS011;11492;42.646;23.400;2023-07-13T01:29:53;10.02;;;4.50;;
22650;SDS011;11492;42.646;23.400;2023-07-13T01:32:27;8.43;;;4.70;;
22650;SDS011;11492;42.646;23.400;2023-07-13T01:34:52;8.93;;;4.47;;
22650;SDS011;11492;42.646;23.400;2023-07-13T01:37:19;8.48;;;4.78;;
22650;SDS011;11492;42.646;23.400;2023-07-13T01:39:45;9.40;;;4.70;;
22650;SDS011;11492;42.646;23.400;2023-07-13T01:42:11;10.32;;;4.97;;
22650;SDS011;11492;42.646;23.400;2023-07-13T01:44:37;7.72;;;4.72;;
22650;SDS011;11492;42.646;23.400;2023-07-13T01:47:02;12.10;;;4.63;;
22650;SDS011;11492;42.646;23.400;2023-07-13T01:49:28;13.27;;;5.22;;
22650;SDS011;11492;42.646;23.400;2023-07-13T01:51:54;10.85;;;4.93;;
22650;SDS011;11492;42.646;23.400;2023-07-13T01:54:20;13.18;;;5.00;;
22650;SDS011;11492;42.646;23.400;2023-07-13T01:56:45;14.90;;;5.30;;
22650;SDS011;11492;42.646;23.400;2023-07-13T01:59:10;7.18;;;4.70;;
22650;SDS011;11492;42.646;23.400;2023-07-13T02:01:36;15.63;;;4.60;;
22650;SDS011;11492;42.646;23.400;2023-07-13T02:04:02;10.93;;;4.80;;
22650;SDS011;11492;42.646;23.400;2023-07-13T02:06:28;11.68;;;4.82;;
22650;SDS011;11492;42.646;23.400;2023-07-13T02:08:53;12.73;;;5.13;;
22650;SDS011;11492;42.646;23.400;2023-07-13T02:11:19;11.25;;;5.25;;
22650;SDS011;11492;42.646;23.400;2023-07-13T02:13:45;10.80;;;5.28;;
22650;SDS011;11492;42.646;23.400;2023-07-13T02:16:10;9.40;;;5.00;;
22650;SDS011;11492;42.646;23.400;2023-07-13T02:18:35;10.88;;;5.00;;
22650;SDS011;11492;42.646;23.400;2023-07-13T02:21:01;10.60;;;5.20;;
22650;SDS011;11492;42.646;23.400;2023-07-13T02:23:27;14.90;;;5.00;;
22650;SDS011;11492;42.646;23.400;2023-07-13T02:25:56;10.60;;;4.95;;
22650;SDS011;11492;42.646;23.400;2023-07-13T02:28:23;9.82;;;5.40;;
22650;SDS011;11492;42.646;23.400;2023-07-13T02:30:48;8.93;;;5.18;;
22650;SDS011;11492;42.646;23.400;2023-07-13T02:33:14;7.85;;;4.88;;
22650;SDS011;11492;42.646;23.400;2023-07-13T02:35:40;12.80;;;5.05;;
22650;SDS011;11492;42.646;23.400;2023-07-13T02:38:05;10.75;;;4.97;;
22650;SDS011;11492;42.646;23.400;2023-07-13T02:40:31;7.13;;;4.93;;
22650;SDS011;11492;42.646;23.400;2023-07-13T02:42:58;8.13;;;5.28;;
22650;SDS011;11492;42.646;23.400;2023-07-13T02:45:25;9.93;;;5.03;;
22650;SDS011;11492;42.646;23.400;2023-07-13T02:47:50;13.88;;;5.57;;
22650;SDS011;11492;42.646;23.400;2023-07-13T02:50:16;13.07;;;5.22;;
22650;SDS011;11492;42.646;23.400;2023-07-13T02:52:41;7.70;;;4.90;;
22650;SDS011;11492;42.646;23.400;2023-07-13T02:55:07;13.50;;;5.32;;
22650;SDS011;11492;42.646;23.400;2023-07-13T02:57:32;12.55;;;5.03;;
22650;SDS011;11492;42.646;23.400;2023-07-13T02:59:59;12.90;;;5.00;;
22650;SDS011;11492;42.646;23.400;2023-07-13T03:02:25;9.02;;;5.03;;
22650;SDS011;11492;42.646;23.400;2023-07-13T03:04:53;12.70;;;5.20;;
22650;SDS011;11492;42.646;23.400;2023-07-13T03:07:19;11.07;;;5.18;;
22650;SDS011;11492;42.646;23.400;2023-07-13T03:09:44;13.52;;;5.30;;
22650;SDS011;11492;42.646;23.400;2023-07-13T03:12:09;13.10;;;5.43;;
22650;SDS011;11492;42.646;23.400;2023-07-13T03:14:35;10.02;;;5.28;;
22650;SDS011;11492;42.646;23.400;2023-07-13T03:17:00;13.65;;;5.07;;
22650;SDS011;11492;42.646;23.400;2023-07-13T03:19:26;15.38;;;5.57;;
22650;SDS011;11492;42.646;23.400;2023-07-13T03:21:51;13.38;;;5.78;;
22650;SDS011;11492;42.646;23.400;2023-07-13T03:24:17;16.60;;;5.25;;
22650;SDS011;11492;42.646;23.400;2023-07-13T03:26:42;15.07;;;5.47;;
22650;SDS011;11492;42.646;23.400;2023-07-13T03:29:08;10.80;;;5.47;;
22650;SDS011;11492;42.646;23.400;2023-07-13T03:31:34;13.88;;;5.25;;
22650;SDS011;11492;42.646;23.400;2023-07-13T03:34:02;17.77;;;6.85;;
22650;SDS011;11492;42.646;23.400;2023-07-13T03:36:29;13.13;;;5.60;;
22650;SDS011;11492;42.646;23.400;2023-07-13T03:38:57;13.98;;;5.78;;
22650;SDS011;11492;42.646;23.400;2023-07-13T03:41:24;9.95;;;5.40;;
22650;SDS011;11492;42.646;23.400;2023-07-13T03:43:50;12.77;;;5.78;;
22650;SDS011;11492;42.646;23.400;2023-07-13T03:46:16;15.65;;;5.15;;
22650;SDS011;11492;42.646;23.400;2023-07-13T03:48:43;15.40;;;5.40;;
22650;SDS011;11492;42.646;23.400;2023-07-13T03:51:11;21.17;;;5.60;;
22650;SDS011;11492;42.646;23.400;2023-07-13T03:53:40;17.67;;;6.07;;
22650;SDS011;11492;42.646;23.400;2023-07-13T03:56:08;24.50;;;6.13;;
22650;SDS011;11492;42.646;23.400;2023-07-13T03:58:35;13.50;;;6.20;;
22650;SDS011;11492;42.646;23.400;2023-07-13T04:01:03;27.33;;;6.63;;
22650;SDS011;11492;42.646;23.400;2023-07-13T04:03:30;17.20;;;6.70;;
22650;SDS011;11492;42.646;23.400;2023-07-13T04:05:58;18.77;;;5.45;;
22650;SDS011;11492;42.646;23.400;2023-07-13T04:08:29;24.05;;;5.63;;
22650;SDS011;11492;42.646;23.400;2023-07-13T04:10:56;15.55;;;6.22;;
22650;SDS011;11492;42.646;23.400;2023-07-13T04:13:23;15.10;;;5.95;;
22650;SDS011;11492;42.646;23.400;2023-07-13T04:15:49;15.30;;;5.80;;
22650;SDS011;11492;42.646;23.400;2023-07-13T04:18:15;14.32;;;6.20;;
22650;SDS011;11492;42.646;23.400;2023-07-13T04:20:40;17.48;;;6.07;;
22650;SDS011;11492;42.646;23.400;2023-07-13T04:23:06;14.38;;;5.82;;
22650;SDS011;11492;42.646;23.400;2023-07-13T04:25:31;15.68;;;6.10;;
22650;SDS011;11492;42.646;23.400;2023-07-13T04:27:57;17.83;;;5.97;;
22650;SDS011;11492;42.646;23.400;2023-07-13T04:30:22;16.80;;;6.43;;
22650;SDS011;11492;42.646;23.400;2023-07-13T04:32:49;14.10;;;5.95;;
22650;SDS011;11492;42.646;23.400;2023-07-13T04:35:16;18.35;;;6.50;;
22650;SDS011;11492;42.646;23.400;2023-07-13T04:37:42;18.98;;;6.65;;
22650;SDS011;11492;42.646;23.400;2023-07-13T04:40:08;13.70;;;6.20;;
22650;SDS011;11492;42.646;23.400;2023-07-13T04:42:37;19.02;;;6.28;;
22650;SDS011;11492;42.646;23.400;2023-07-13T04:45:02;19.13;;;6.53;;
22650;SDS011;11492;42.646;23.400;2023-07-13T04:47:30;16.90;;;6.00;;
22650;SDS011;11492;42.646;23.400;2023-07-13T04:49:55;16.73;;;6.32;;
22650;SDS011;11492;42.646;23.400;2023-07-13T04:52:22;11.77;;;6.40;;
22650;SDS011;11492;42.646;23.400;2023-07-13T04:54:48;12.43;;;6.22;;
22650;SDS011;11492;42.646;23.400;2023-07-13T04:57:13;13.85;;;6.78;;
22650;SDS011;11492;42.646;23.400;2023-07-13T04:59:39;15.07;;;6.00;;
22650;SDS011;11492;42.646;23.400;2023-07-13T05:02:04;13.13;;;6.30;;
22650;SDS011;11492;42.646;23.400;2023-07-13T05:04:30;15.38;;;6.07;;
22650;SDS011;11492;42.646;23.400;2023-07-13T05:06:55;18.85;;;6.97;;
22650;SDS011;11492;42.646;23.400;2023-07-13T05:09:21;20.88;;;7.40;;
22650;SDS011;11492;42.646;23.400;2023-07-13T05:11:47;39.67;;;7.28;;
22650;SDS011;11492;42.646;23.400;2023-07-13T05:14:12;23.13;;;7.43;;
22650;SDS011;11492;42.646;23.400;2023-07-13T05:16:38;15.13;;;6.53;;
22650;SDS011;11492;42.646;23.400;2023-07-13T05:19:03;20.55;;;6.97;;
22650;SDS011;11492;42.646;23.400;2023-07-13T05:21:29;20.52;;;7.82;;
22650;SDS011;11492;42.646;23.400;2023-07-13T05:23:54;16.67;;;7.07;;
22650;SDS011;11492;42.646;23.400;2023-07-13T05:26:20;16.52;;;7.05;;
22650;SDS011;11492;42.646;23.400;2023-07-13T05:28:46;15.38;;;6.57;;
22650;SDS011;11492;42.646;23.400;2023-07-13T05:31:11;15.82;;;7.35;;
22650;SDS011;11492;42.646;23.400;2023-07-13T05:33:37;15.45;;;6.10;;
22650;SDS011;11492;42.646;23.400;2023-07-13T05:36:02;16.65;;;6.95;;
22650;SDS011;11492;42.646;23.400;2023-07-13T05:38:28;13.40;;;7.05;;
22650;SDS011;11492;42.646;23.400;2023-07-13T05:40:54;14.95;;;6.03;;
22650;SDS011;11492;42.646;23.400;2023-07-13T05:43:21;13.18;;;6.53;;
22650;SDS011;11492;42.646;23.400;2023-07-13T05:45:47;10.93;;;6.50;;
22650;SDS011;11492;42.646;23.400;2023-07-13T05:48:13;18.27;;;7.10;;
22650;SDS011;11492;42.646;23.400;2023-07-13T05:50:40;14.68;;;7.55;;
22650;SDS011;11492;42.646;23.400;2023-07-13T05:53:05;16.35;;;7.22;;
22650;SDS011;11492;42.646;23.400;2023-07-13T05:55:31;19.35;;;8.57;;
22650;SDS011;11492;42.646;23.400;2023-07-13T05:57:57;17.23;;;7.47;;
22650;SDS011;11492;42.646;23.400;2023-07-13T06:00:23;21.10;;;8.35;;
22650;SDS011;11492;42.646;23.400;2023-07-13T06:02:49;13.65;;;7.43;;
22650;SDS011;11492;42.646;23.400;2023-07-13T06:05:15;19.63;;;7.43;;
22650;SDS011;11492;42.646;23.400;2023-07-13T06:07:41;18.50;;;7.85;;
22650;SDS011;11492;42.646;23.400;2023-07-13T06:10:06;16.23;;;7.32;;
22650;SDS011;11492;42.646;23.400;2023-07-13T06:12:32;16.40;;;7.00;;
22650;SDS011;11492;42.646;23.400;2023-07-13T06:14:57;17.88;;;7.10;;
22650;SDS011;11492;42.646;23.400;2023-07-13T06:17:23;14.77;;;7.25;;
22650;SDS011;11492;42.646;23.400;2023-07-13T06:19:48;14.52;;;6.93;;
22650;SDS011;11492;42.646;23.400;2023-07-13T06:22:13;14.63;;;6.97;;
22650;SDS011;11492;42.646;23.400;2023-07-13T06:24:39;15.73;;;6.55;;
22650;SDS011;11492;42.646;23.400;2023-07-13T06:27:04;12.57;;;6.80;;
22650;SDS011;11492;42.646;23.400;2023-07-13T06:29:30;19.80;;;6.47;;
22650;SDS011;11492;42.646;23.400;2023-07-13T06:31:56;15.40;;;6.82;;
22650;SDS011;11492;42.646;23.400;2023-07-13T06:34:22;13.40;;;6.50;;
22650;SDS011;11492;42.646;23.400;2023-07-13T06:36:47;11.68;;;6.13;;
22650;SDS011;11492;42.646;23.400;2023-07-13T06:39:12;19.27;;;6.90;;
22650;SDS011;11492;42.646;23.400;2023-07-13T06:41:38;20.25;;;7.35;;
22650;SDS011;11492;42.646;23.400;2023-07-13T06:44:04;16.38;;;7.18;;
22650;SDS011;11492;42.646;23.400;2023-07-13T06:46:29;18.40;;;7.00;;
22650;SDS011;11492;42.646;23.400;2023-07-13T06:48:55;17.05;;;7.13;;
22650;SDS011;11492;42.646;23.400;2023-07-13T06:51:21;22.10;;;6.80;;
22650;SDS011;11492;42.646;23.400;2023-07-13T06:53:46;22.50;;;7.10;;
22650;SDS011;11492;42.646;23.400;2023-07-13T06:56:12;21.75;;;6.93;;
22650;SDS011;11492;42.646;23.400;2023-07-13T06:58:38;21.33;;;6.95;;
22650;SDS011;11492;42.646;23.400;2023-07-13T07:01:04;22.55;;;6.85;;
22650;SDS011;11492;42.646;23.400;2023-07-13T07:03:29;22.15;;;7.60;;
22650;SDS011;11492;42.646;23.400;2023-07-13T07:06:28;19.48;;;7.32;;
22650;SDS011;11492;42.646;23.400;2023-07-13T07:08:51;27.17;;;7.40;;
22650;SDS011;11492;42.646;23.400;2023-07-13T07:11:18;33.22;;;8.20;;
22650;SDS011;11492;42.646;23.400;2023-07-13T07:13:48;22.90;;;7.75;;
22650;SDS011;11492;42.646;23.400;2023-07-13T07:16:14;20.33;;;7.57;;
22650;SDS011;11492;42.646;23.400;2023-07-13T07:18:39;22.38;;;7.80;;
22650;SDS011;11492;42.646;23.400;2023-07-13T07:21:05;28.52;;;8.95;;
22650;SDS011;11492;42.646;23.400;2023-07-13T07:23:30;19.98;;;8.52;;
22650;SDS011;11492;42.646;23.400;2023-07-13T07:25:56;22.65;;;8.10;;
22650;SDS011;11492;42.646;23.400;2023-07-13T07:28:21;24.27;;;8.25;;
22650;SDS011;11492;42.646;23.400;2023-07-13T07:30:47;22.02;;;7.82;;
22650;SDS011;11492;42.646;23.400;2023-07-13T07:33:13;20.08;;;7.80;;
22650;SDS011;11492;42.646;23.400;2023-07-13T07:35:39;15.82;;;7.45;;
22650;SDS011;11492;42.646;23.400;2023-07-13T07:38:05;25.40;;;7.90;;
22650;SDS011;11492;42.646;23.400;2023-07-13T07:40:31;11.85;;;7.15;;
22650;SDS011;11492;42.646;23.400;2023-07-13T07:42:57;27.23;;;7.32;;
22650;SDS011;11492;42.646;23.400;2023-07-13T07:45:23;21.92;;;6.90;;
22650;SDS011;11492;42.646;23.400;2023-07-13T07:47:48;17.58;;;6.53;;
22650;SDS011;11492;42.646;23.400;2023-07-13T07:50:14;19.98;;;6.80;;
22650;SDS011;11492;42.646;23.400;2023-07-13T07:52:39;13.02;;;7.03;;
22650;SDS011;11492;42.646;23.400;2023-07-13T07:55:06;20.77;;;6.32;;
22650;SDS011;11492;42.646;23.400;2023-07-13T07:57:32;15.23;;;7.05;;
22650;SDS011;11492;42.646;23.400;2023-07-13T07:59:57;20.23;;;7.57;;
22650;SDS011;11492;42.646;23.400;2023-07-13T08:02:24;17.65;;;7.50;;
22650;SDS011;11492;42.646;23.400;2023-07-13T08:04:49;22.65;;;7.32;;
22650;SDS011;11492;42.646;23.400;2023-07-13T08:07:15;23.85;;;7.18;;
22650;SDS011;11492;42.646;23.400;2023-07-13T08:09:40;19.60;;;6.97;;
22650;SDS011;11492;42.646;23.400;2023-07-13T08:12:06;18.10;;;7.07;;
22650;SDS011;11492;42.646;23.400;2023-07-13T08:14:32;22.38;;;6.65;;
22650;SDS011;11492;42.646;23.400;2023-07-13T08:16:57;13.52;;;7.13;;
22650;SDS011;11492;42.646;23.400;2023-07-13T08:19:23;19.75;;;6.75;;
22650;SDS011;11492;42.646;23.400;2023-07-13T08:21:48;16.27;;;6.80;;
22650;SDS011;11492;42.646;23.400;2023-07-13T08:24:14;13.52;;;6.35;;
22650;SDS011;11492;42.646;23.400;2023-07-13T08:26:40;14.05;;;6.68;;
22650;SDS011;11492;42.646;23.400;2023-07-13T08:29:05;14.43;;;6.47;;
22650;SDS011;11492;42.646;23.400;2023-07-13T08:31:31;21.05;;;6.57;;
22650;SDS011;11492;42.646;23.400;2023-07-13T08:33:56;13.40;;;6.43;;
22650;SDS011;11492;42.646;23.400;2023-07-13T08:36:22;13.48;;;6.88;;
22650;SDS011;11492;42.646;23.400;2023-07-13T08:38:47;12.73;;;6.78;;
22650;SDS011;11492;42.646;23.400;2023-07-13T08:41:14;16.65;;;6.70;;
22650;SDS011;11492;42.646;23.400;2023-07-13T08:43:42;16.27;;;6.82;;
22650;SDS011;11492;42.646;23.400;2023-07-13T08:46:23;22.67;;;7.22;;
22650;SDS011;11492;42.646;23.400;2023-07-13T08:48:56;18.02;;;6.53;;
22650;SDS011;11492;42.646;23.400;2023-07-13T08:53:59;25.35;;;6.38;;
22650;SDS011;11492;42.646;23.400;2023-07-13T08:56:31;14.63;;;6.10;;
22650;SDS011;11492;42.646;23.400;2023-07-13T08:59:00;12.98;;;6.32;;
22650;SDS011;11492;42.646;23.400;2023-07-13T09:01:37;19.02;;;6.30;;
22650;SDS011;11492;42.646;23.400;2023-07-13T09:04:23;17.17;;;5.90;;
22650;SDS011;11492;42.646;23.400;2023-07-13T09:17:08;21.85;;;7.03;;
22650;SDS011;11492;42.646;23.400;2023-07-13T09:19:39;21.02;;;6.30;;
22650;SDS011;11492;42.646;23.400;2023-07-13T09:22:07;25.85;;;7.03;;
22650;SDS011;11492;42.646;23.400;2023-07-13T09:24:45;26.48;;;6.57;;
22650;SDS011;11492;42.646;23.400;2023-07-13T09:27:13;19.63;;;6.90;;
22650;SDS011;11492;42.646;23.400;2023-07-13T09:29:45;21.65;;;6.72;;
22650;SDS011;11492;42.646;23.400;2023-07-13T09:32:14;21.47;;;7.20;;
22650;SDS011;11492;42.646;23.400;2023-07-13T09:34:50;22.17;;;6.57;;
22650;SDS011;11492;42.646;23.400;2023-07-13T09:37:16;25.20;;;7.10;;
22650;SDS011;11492;42.646;23.400;2023-07-13T09:39:43;24.30;;;6.57;;
22650;SDS011;11492;42.646;23.400;2023-07-13T09:42:14;20.73;;;7.55;;
22650;SDS011;11492;42.646;23.400;2023-07-13T09:47:16;22.83;;;6.85;;
22650;SDS011;11492;42.646;23.400;2023-07-13T09:49:44;24.77;;;6.80;;
22650;SDS011;11492;42.646;23.400;2023-07-13T09:52:11;20.77;;;7.30;;
22650;SDS011;11492;42.646;23.400;2023-07-13T09:54:39;18.40;;;7.38;;
22650;SDS011;11492;42.646;23.400;2023-07-13T09:57:14;22.33;;;7.22;;
22650;SDS011;11492;42.646;23.400;2023-07-13T09:59:43;20.45;;;6.80;;
22650;SDS011;11492;42.646;23.400;2023-07-13T10:04:51;13.75;;;6.82;;
22650;SDS011;11492;42.646;23.400;2023-07-13T10:07:22;14.80;;;6.43;;
22650;SDS011;11492;42.646;23.400;2023-07-13T10:09:51;20.77;;;6.97;;
22650;SDS011;11492;42.646;23.400;2023-07-13T10:12:19;19.70;;;7.60;;
22650;SDS011;11492;42.646;23.400;2023-07-13T10:14:44;20.10;;;7.28;;
22650;SDS011;11492;42.646;23.400;2023-07-13T10:17:10;23.52;;;7.57;;
22650;SDS011;11492;42.646;23.400;2023-07-13T10:19:39;18.77;;;7.72;;
22650;SDS011;11492;42.646;23.400;2023-07-13T10:22:20;29.30;;;7.22;;
22650;SDS011;11492;42.646;23.400;2023-07-13T10:24:50;14.80;;;6.67;;
22650;SDS011;11492;42.646;23.400;2023-07-13T10:27:20;17.52;;;7.28;;
22650;SDS011;11492;42.646;23.400;2023-07-13T10:29:53;25.17;;;7.70;;
22650;SDS011;11492;42.646;23.400;2023-07-13T10:32:25;16.08;;;6.90;;
22650;SDS011;11492;42.646;23.400;2023-07-13T10:34:51;20.35;;;7.35;;
22650;SDS011;11492;42.646;23.400;2023-07-13T10:37:27;28.48;;;7.32;;
22650;SDS011;11492;42.646;23.400;2023-07-13T10:39:59;14.40;;;7.10;;
22650;SDS011;11492;42.646;23.400;2023-07-13T10:42:30;26.20;;;7.40;;
22650;SDS011;11492;42.646;23.400;2023-07-13T10:45:00;21.52;;;7.25;;
22650;SDS011;11492;42.646;23.400;2023-07-13T10:47:26;19.13;;;7.05;;
22650;SDS011;11492;42.646;23.400;2023-07-13T10:49:53;20.00;;;7.45;;
22650;SDS011;11492;42.646;23.400;2023-07-13T10:58:18;18.75;;;6.82;;
22650;SDS011;11492;42.646;23.400;2023-07-13T11:00:49;21.77;;;6.35;;
22650;SDS011;11492;42.646;23.400;2023-07-13T11:03:29;18.98;;;6.90;;
22650;SDS011;11492;42.646;23.400;2023-07-13T11:14:00;18.98;;;7.13;;
22650;SDS011;11492;42.646;23.400;2023-07-13T11:16:43;20.35;;;7.05;;
22650;SDS011;11492;42.646;23.400;2023-07-13T11:24:47;20.77;;;6.25;;
22650;SDS011;11492;42.646;23.400;2023-07-13T11:27:27;14.73;;;6.63;;
22650;SDS011;11492;42.646;23.400;2023-07-13T11:33:10;22.10;;;6.40;;
22650;SDS011;11492;42.646;23.400;2023-07-13T11:41:10;20.77;;;6.78;;
22650;SDS011;11492;42.646;23.400;2023-07-13T11:43:50;13.95;;;6.35;;
22650;SDS011;11492;42.646;23.400;2023-07-13T11:46:22;14.05;;;6.70;;
22650;SDS011;11492;42.646;23.400;2023-07-13T11:48:50;23.20;;;6.67;;
22650;SDS011;11492;42.646;23.400;2023-07-13T11:51:37;24.25;;;7.05;;
22650;SDS011;11492;42.646;23.400;2023-07-13T11:54:06;16.90;;;6.30;;
22650;SDS011;11492;42.646;23.400;2023-07-13T11:56:58;26.85;;;7.50;;
22650;SDS011;11492;42.646;23.400;2023-07-13T11:59:26;18.92;;;6.43;;
22650;SDS011;11492;42.646;23.400;2023-07-13T12:01:54;16.05;;;5.38;;
22650;SDS011;11492;42.646;23.400;2023-07-13T12:04:24;17.38;;;5.32;;
22650;SDS011;11492;42.646;23.400;2023-07-13T12:07:15;13.63;;;5.38;;
22650;SDS011;11492;42.646;23.400;2023-07-13T12:09:42;15.05;;;6.60;;
22650;SDS011;11492;42.646;23.400;2023-07-13T12:12:16;16.50;;;5.72;;
22650;SDS011;11492;42.646;23.400;2023-07-13T12:14:43;13.73;;;5.90;;
22650;SDS011;11492;42.646;23.400;2023-07-13T12:17:15;13.18;;;5.30;;
22650;SDS011;11492;42.646;23.400;2023-07-13T12:19:43;11.15;;;5.20;;
22650;SDS011;11492;42.646;23.400;2023-07-13T12:22:09;22.17;;;5.82;;
22650;SDS011;11492;42.646;23.400;2023-07-13T12:24:37;11.27;;;4.53;;
22650;SDS011;11492;42.646;23.400;2023-07-13T12:27:04;8.15;;;4.90;;
22650;SDS011;11492;42.646;23.400;2023-07-13T12:29:31;20.30;;;5.63;;
22650;SDS011;11492;42.646;23.400;2023-07-13T12:31:57;14.13;;;5.35;;
22650;SDS011;11492;42.646;23.400;2023-07-13T12:34:24;18.52;;;5.75;;
22650;SDS011;11492;42.646;23.400;2023-07-13T12:39:35;20.02;;;6.05;;
22650;SDS011;11492;42.646;23.400;2023-07-13T12:42:17;18.20;;;5.68;;
22650;SDS011;11492;42.646;23.400;2023-07-13T12:44:52;14.95;;;5.88;;
22650;SDS011;11492;42.646;23.400;2023-07-13T12:47:19;15.40;;;5.68;;
22650;SDS011;11492;42.646;23.400;2023-07-13T12:49:49;21.70;;;5.88;;
22650;SDS011;11492;42.646;23.400;2023-07-13T12:52:24;16.75;;;5.93;;
22650;SDS011;11492;42.646;23.400;2023-07-13T12:55:05;20.27;;;5.95;;
22650;SDS011;11492;42.646;23.400;2023-07-13T12:57:46;28.98;;;6.82;;
22650;SDS011;11492;42.646;23.400;2023-07-13T13:00:23;24.38;;;6.07;;
22650;SDS011;11492;42.646;23.400;2023-07-13T13:06:07;19.48;;;5.18;;
22650;SDS011;11492;42.646;23.400;2023-07-13T13:08:58;15.00;;;5.82;;
22650;SDS011;11492;42.646;23.400;2023-07-13T13:11:25;14.57;;;5.90;;
22650;SDS011;11492;42.646;23.400;2023-07-13T13:13:51;17.27;;;5.97;;
22650;SDS011;11492;42.646;23.400;2023-07-13T13:24:14;14.68;;;5.80;;
22650;SDS011;11492;42.646;23.400;2023-07-13T13:26:42;14.32;;;5.72;;
22650;SDS011;11492;42.646;23.400;2023-07-13T13:29:13;19.35;;;6.35;;
22650;SDS011;11492;42.646;23.400;2023-07-13T13:31:41;16.95;;;5.80;;
22650;SDS011;11492;42.646;23.400;2023-07-13T13:34:08;15.30;;;5.82;;
22650;SDS011;11492;42.646;23.400;2023-07-13T13:36:39;16.65;;;5.40;;
22650;SDS011;11492;42.646;23.400;2023-07-13T13:39:15;18.60;;;6.00;;
22650;SDS011;11492;42.646;23.400;2023-07-13T13:41:48;16.38;;;6.00;;
22650;SDS011;11492;42.646;23.400;2023-07-13T13:44:17;21.75;;;6.30;;
22650;SDS011;11492;42.646;23.400;2023-07-13T13:46:45;21.00;;;6.35;;
22650;SDS011;11492;42.646;23.400;2023-07-13T13:49:16;20.45;;;6.05;;
22650;SDS011;11492;42.646;23.400;2023-07-13T13:51:44;21.75;;;8.27;;
22650;SDS011;11492;42.646;23.400;2023-07-13T13:54:11;28.85;;;6.20;;
22650;SDS011;11492;42.646;23.400;2023-07-13T13:56:45;16.98;;;6.38;;
22650;SDS011;11492;42.646;23.400;2023-07-13T13:59:12;14.60;;;5.95;;
22650;SDS011;11492;42.646;23.400;2023-07-13T14:01:38;24.30;;;6.55;;
22650;SDS011;11492;42.646;23.400;2023-07-13T14:04:05;18.15;;;5.68;;
22650;SDS011;11492;42.646;23.400;2023-07-13T14:06:32;16.58;;;5.68;;
22650;SDS011;11492;42.646;23.400;2023-07-13T14:08:58;18.98;;;6.15;;
22650;SDS011;11492;42.646;23.400;2023-07-13T14:11:25;22.08;;;6.50;;
22650;SDS011;11492;42.646;23.400;2023-07-13T14:13:59;17.92;;;5.88;;
22650;SDS011;11492;42.646;23.400;2023-07-13T14:16:29;15.45;;;6.10;;
22650;SDS011;11492;42.646;23.400;2023-07-13T14:18:57;15.48;;;5.68;;
22650;SDS011;11492;42.646;23.400;2023-07-13T14:21:25;15.48;;;6.10;;
22650;SDS011;11492;42.646;23.400;2023-07-13T14:23:51;21.05;;;6.10;;
22650;SDS011;11492;42.646;23.400;2023-07-13T14:26:21;16.80;;;5.97;;
22650;SDS011;11492;42.646;23.400;2023-07-13T14:28:50;19.85;;;6.15;;
22650;SDS011;11492;42.646;23.400;2023-07-13T14:31:17;16.25;;;6.50;;
22650;SDS011;11492;42.646;23.400;2023-07-13T14:33:44;23.58;;;5.97;;
22650;SDS011;11492;42.646;23.400;2023-07-13T14:36:31;13.75;;;6.40;;
22650;SDS011;11492;42.646;23.400;2023-07-13T14:38:59;11.15;;;5.65;;
22650;SDS011;11492;42.646;23.400;2023-07-13T14:41:31;22.88;;;6.72;;
22650;SDS011;11492;42.646;23.400;2023-07-13T14:43:57;15.95;;;6.55;;
22650;SDS011;11492;42.646;23.400;2023-07-13T14:46:29;15.95;;;6.40;;
22650;SDS011;11492;42.646;23.400;2023-07-13T14:49:03;17.17;;;6.20;;
22650;SDS011;11492;42.646;23.400;2023-07-13T14:51:31;20.08;;;6.38;;
22650;SDS011;11492;42.646;23.400;2023-07-13T14:54:00;23.88;;;6.10;;
22650;SDS011;11492;42.646;23.400;2023-07-13T14:56:30;13.77;;;5.85;;
22650;SDS011;11492;42.646;23.400;2023-07-13T14:58:55;14.48;;;6.40;;
22650;SDS011;11492;42.646;23.400;2023-07-13T15:01:21;21.27;;;6.60;;
22650;SDS011;11492;42.646;23.400;2023-07-13T15:03:48;23.23;;;6.45;;
22650;SDS011;11492;42.646;23.400;2023-07-13T15:06:15;24.83;;;6.68;;
22650;SDS011;11492;42.646;23.400;2023-07-13T15:08:42;20.42;;;6.00;;
22650;SDS011;11492;42.646;23.400;2023-07-13T15:11:08;13.48;;;5.82;;
22650;SDS011;11492;42.646;23.400;2023-07-13T15:13:37;23.08;;;6.75;;
22650;SDS011;11492;42.646;23.400;2023-07-13T15:16:03;13.15;;;6.15;;
22650;SDS011;11492;42.646;23.400;2023-07-13T15:18:29;17.48;;;5.70;;
22650;SDS011;11492;42.646;23.400;2023-07-13T15:20:55;18.73;;;6.10;;
22650;SDS011;11492;42.646;23.400;2023-07-13T15:23:22;16.83;;;6.45;;
22650;SDS011;11492;42.646;23.400;2023-07-13T15:25:48;22.63;;;6.68;;
22650;SDS011;11492;42.646;23.400;2023-07-13T15:28:14;17.60;;;6.20;;
22650;SDS011;11492;42.646;23.400;2023-07-13T15:30:44;16.13;;;5.78;;